createdAt,value
2022-11-06T00:00:23.753Z,18.40
2022-11-06T00:02:51.865Z,13.80
2022-11-06T00:05:37.289Z,19.20
2022-11-06T00:08:05.744Z,21.00
2022-11-06T00:10:34.440Z,13.90
2022-11-06T00:13:02.582Z,18.23
2022-11-06T00:15:32.615Z,17.27
2022-11-06T00:18:00.739Z,13.10
2022-11-06T00:20:28.823Z,13.87
2022-11-06T00:22:56.872Z,16.40
2022-11-06T00:25:24.864Z,15.93
2022-11-06T00:27:52.926Z,15.03
2022-11-06T00:30:21.421Z,15.93
2022-11-06T00:32:50.869Z,14.07
2022-11-06T00:35:19.105Z,15.63
2022-11-06T00:37:47.696Z,16.87
2022-11-06T00:40:15.756Z,14.87
2022-11-06T00:42:43.879Z,16.37
2022-11-06T00:45:12.180Z,15.80
2022-11-06T00:47:40.248Z,15.37
2022-11-06T00:50:10.592Z,14.00
2022-11-06T00:52:38.623Z,16.23
2022-11-06T00:55:07.000Z,15.20
2022-11-06T00:57:35.028Z,14.20
2022-11-06T01:00:03.750Z,15.03
2022-11-06T01:02:32.055Z,14.30
2022-11-06T01:05:00.207Z,16.00
2022-11-06T01:07:29.857Z,16.43
2022-11-06T01:09:57.960Z,16.10
2022-11-06T01:12:26.064Z,16.17
2022-11-06T01:14:54.316Z,19.07
2022-11-06T01:17:22.357Z,16.47
2022-11-06T01:19:50.430Z,18.90
2022-11-06T01:22:18.710Z,15.70
2022-11-06T01:24:48.235Z,19.37
2022-11-06T01:27:31.599Z,15.27
2022-11-06T01:29:59.921Z,14.90
2022-11-06T01:32:27.944Z,15.13
2022-11-06T01:34:55.960Z,20.47
2022-11-06T01:37:23.989Z,15.30
2022-11-06T01:39:53.426Z,17.63
2022-11-06T01:42:22.272Z,14.90
2022-11-06T01:45:21.088Z,15.03
2022-11-06T01:47:50.046Z,16.90
2022-11-06T01:50:19.216Z,17.93
2022-11-06T01:52:50.290Z,18.60
2022-11-06T01:55:25.112Z,15.40
2022-11-06T01:57:53.620Z,14.23
2022-11-06T02:00:21.812Z,14.43
2022-11-06T02:02:51.562Z,17.00
2022-11-06T02:05:19.879Z,15.97
2022-11-06T02:07:48.977Z,17.17
2022-11-06T02:10:17.419Z,15.83
2022-11-06T02:12:58.271Z,18.73
2022-11-06T02:15:37.167Z,16.20
2022-11-06T02:18:30.205Z,17.90
2022-11-06T02:21:41.608Z,14.10
2022-11-06T02:24:33.785Z,15.33
2022-11-06T02:27:11.481Z,15.07
2022-11-06T02:29:46.638Z,17.27
2022-11-06T02:32:19.963Z,17.57
2022-11-06T02:34:51.591Z,15.77
2022-11-06T02:37:26.109Z,14.33
2022-11-06T02:39:59.122Z,15.17
2022-11-06T02:42:34.795Z,15.80
2022-11-06T02:45:04.686Z,13.70
2022-11-06T02:47:34.808Z,16.67
2022-11-06T02:50:08.984Z,18.57
2022-11-06T02:52:42.994Z,13.67
2022-11-06T02:55:15.336Z,15.27
2022-11-06T02:57:50.518Z,18.40
2022-11-06T03:00:19.199Z,18.20
2022-11-06T03:02:51.438Z,16.83
2022-11-06T03:05:25.254Z,15.00
2022-11-06T03:07:59.801Z,16.10
2022-11-06T03:10:39.049Z,14.93
2022-11-06T03:13:18.403Z,17.47
2022-11-06T03:15:54.003Z,15.60
2022-11-06T03:18:28.836Z,16.87
2022-11-06T03:21:02.479Z,16.93
2022-11-06T03:23:36.677Z,16.20
2022-11-06T03:26:13.249Z,16.60
2022-11-06T03:28:52.651Z,15.33
2022-11-06T03:31:28.318Z,13.17
2022-11-06T03:34:00.514Z,16.07
2022-11-06T03:36:33.363Z,16.70
2022-11-06T03:39:05.795Z,18.00
2022-11-06T03:41:39.771Z,15.73
2022-11-06T03:44:14.088Z,15.37
2022-11-06T03:46:48.717Z,14.93
2022-11-06T03:49:22.244Z,13.10
2022-11-06T03:51:54.905Z,15.43
2022-11-06T03:54:27.765Z,14.37
2022-11-06T03:57:00.722Z,14.40
2022-11-06T03:59:35.246Z,16.83
2022-11-06T04:02:04.096Z,17.50
2022-11-06T04:04:38.032Z,14.27
2022-11-06T04:07:09.297Z,14.43
2022-11-06T04:09:58.868Z,15.10
2022-11-06T04:12:58.880Z,14.77
2022-11-06T04:15:31.812Z,15.23
2022-11-06T04:18:00.355Z,17.40
2022-11-06T04:20:56.252Z,18.13
2022-11-06T04:23:37.682Z,13.73
2022-11-06T04:26:29.381Z,15.07
2022-11-06T04:29:05.483Z,13.70
2022-11-06T04:31:42.090Z,15.37
2022-11-06T04:34:18.161Z,14.60
2022-11-06T04:36:50.630Z,13.77
2022-11-06T04:39:27.257Z,17.70
2022-11-06T04:42:02.224Z,14.90
2022-11-06T04:44:34.196Z,13.37
2022-11-06T04:47:06.189Z,13.97
2022-11-06T04:49:38.227Z,14.10
2022-11-06T04:52:10.924Z,16.20
2022-11-06T04:54:39.729Z,16.93
2022-11-06T04:57:07.828Z,16.93
2022-11-06T04:59:37.533Z,15.50
2022-11-06T05:02:07.676Z,12.00
2022-11-06T05:04:35.793Z,14.93
2022-11-06T05:07:03.882Z,16.73
2022-11-06T05:09:31.898Z,13.30
2022-11-06T05:11:59.889Z,14.37
2022-11-06T05:14:27.915Z,13.73
2022-11-06T05:16:55.967Z,13.97
2022-11-06T05:19:25.347Z,15.30
2022-11-06T05:22:11.027Z,12.10
2022-11-06T05:24:39.038Z,15.13
2022-11-06T05:27:07.040Z,14.80
2022-11-06T05:29:35.008Z,13.90
2022-11-06T05:32:03.044Z,12.40
2022-11-06T05:34:32.351Z,14.00
2022-11-06T05:37:00.379Z,12.50
2022-11-06T05:39:28.427Z,15.90
2022-11-06T05:41:56.438Z,12.20
2022-11-06T05:44:24.507Z,15.70
2022-11-06T05:46:52.462Z,15.03
2022-11-06T05:49:20.525Z,13.30
2022-11-06T05:51:50.016Z,12.13
2022-11-06T05:54:18.016Z,12.57
2022-11-06T05:56:46.030Z,13.30
2022-11-06T05:59:14.139Z,12.30
2022-11-06T06:01:42.408Z,12.80
2022-11-06T06:04:10.546Z,13.83
2022-11-06T06:06:39.015Z,13.23
2022-11-06T06:09:08.569Z,10.80
2022-11-06T06:11:36.614Z,13.70
2022-11-06T06:14:04.662Z,14.47
2022-11-06T06:16:32.766Z,14.43
2022-11-06T06:19:00.801Z,12.47
2022-11-06T06:21:28.760Z,12.17
2022-11-06T06:23:56.749Z,15.17
2022-11-06T06:26:26.228Z,14.50
2022-11-06T06:28:54.698Z,12.17
2022-11-06T06:31:22.831Z,13.20
2022-11-06T06:33:50.821Z,14.43
2022-11-06T06:36:18.762Z,13.80
2022-11-06T06:38:46.889Z,14.30
2022-11-06T06:41:14.831Z,12.80
2022-11-06T06:43:44.623Z,13.60
2022-11-06T06:46:12.630Z,11.43
2022-11-06T06:48:40.625Z,13.23
2022-11-06T06:51:08.962Z,12.97
2022-11-06T06:53:37.283Z,13.63
2022-11-06T06:56:05.660Z,13.83
2022-11-06T06:58:33.989Z,12.90
2022-11-06T07:01:05.394Z,15.53
2022-11-06T07:03:33.751Z,14.60
2022-11-06T07:06:02.098Z,14.27
2022-11-06T07:08:30.837Z,11.83
2022-11-06T07:11:02.132Z,11.10
2022-11-06T07:13:35.456Z,10.00
2022-11-06T07:16:06.140Z,10.70
2022-11-06T07:18:34.205Z,12.33
2022-11-06T07:21:05.801Z,9.07
2022-11-06T07:23:34.533Z,11.53
2022-11-06T07:26:03.432Z,12.53
2022-11-06T07:28:31.447Z,10.80
2022-11-06T07:31:00.783Z,10.27
2022-11-06T07:33:30.461Z,12.30
2022-11-06T07:36:03.781Z,10.47
2022-11-06T07:38:33.547Z,8.83
2022-11-06T07:41:03.966Z,10.77
2022-11-06T07:43:32.015Z,11.73
2022-11-06T07:46:01.694Z,10.80
2022-11-06T07:48:32.239Z,11.43
2022-11-06T07:51:03.203Z,10.90
2022-11-06T07:53:31.253Z,9.60
2022-11-06T07:55:59.243Z,10.40
2022-11-06T07:58:27.476Z,11.00
2022-11-06T08:00:57.588Z,11.63
2022-11-06T08:03:29.810Z,12.27
2022-11-06T08:05:59.493Z,8.80
2022-11-06T08:08:28.850Z,12.03
2022-11-06T08:10:56.850Z,11.30
2022-11-06T08:13:25.994Z,10.20
2022-11-06T08:15:54.105Z,8.93
2022-11-06T08:18:22.129Z,12.37
2022-11-06T08:20:50.086Z,10.90
2022-11-06T08:23:19.413Z,8.80
2022-11-06T08:25:47.488Z,10.20
2022-11-06T08:28:15.858Z,10.43
2022-11-06T08:30:44.092Z,9.87
2022-11-06T08:33:12.296Z,8.10
2022-11-06T08:35:40.354Z,11.13
2022-11-06T08:38:08.374Z,7.20
2022-11-06T08:40:39.916Z,9.57
2022-11-06T08:43:10.072Z,8.10
2022-11-06T08:45:38.796Z,8.93
2022-11-06T08:48:08.193Z,11.80
2022-11-06T08:50:38.430Z,8.40
2022-11-06T08:53:07.186Z,8.97
2022-11-06T08:55:37.510Z,7.47
2022-11-06T08:58:07.543Z,8.80
2022-11-06T09:00:36.327Z,8.97
2022-11-06T09:03:06.384Z,8.83
2022-11-06T09:05:34.771Z,8.50
2022-11-06T09:08:03.030Z,8.07
2022-11-06T09:10:31.014Z,8.87
2022-11-06T09:13:00.178Z,9.83
2022-11-06T09:15:29.627Z,8.17
2022-11-06T09:17:57.803Z,8.07
2022-11-06T09:20:26.918Z,7.73
2022-11-06T09:22:55.198Z,7.67
2022-11-06T09:25:23.097Z,9.03
2022-11-06T09:27:58.807Z,8.93
2022-11-06T09:30:30.833Z,9.43
2022-11-06T09:33:00.391Z,7.33
2022-11-06T09:35:30.245Z,10.43
2022-11-06T09:38:03.029Z,9.17
2022-11-06T09:40:34.822Z,7.80
2022-11-06T09:43:16.562Z,7.63
2022-11-06T09:45:53.700Z,6.00
2022-11-06T09:48:27.843Z,6.93
2022-11-06T09:50:59.665Z,6.70
2022-11-06T09:53:33.220Z,8.03
2022-11-06T09:56:03.825Z,6.53
2022-11-06T09:58:36.691Z,8.80
2022-11-06T10:01:20.369Z,8.33
2022-11-06T10:03:55.724Z,7.63
2022-11-06T10:06:25.045Z,8.03
2022-11-06T10:08:55.780Z,7.60
2022-11-06T10:11:41.038Z,9.40
2022-11-06T10:14:20.817Z,7.13
2022-11-06T10:16:56.528Z,8.00
2022-11-06T10:19:32.697Z,7.70
2022-11-06T10:22:09.405Z,7.23
2022-11-06T10:24:45.193Z,8.80
2022-11-06T10:27:17.766Z,6.90
2022-11-06T10:30:10.421Z,7.60
2022-11-06T10:32:59.930Z,7.17
2022-11-06T10:35:32.516Z,8.10
2022-11-06T10:38:05.628Z,10.23
2022-11-06T10:40:35.040Z,7.90
2022-11-06T10:43:13.113Z,6.07
2022-11-06T10:45:45.307Z,6.30
2022-11-06T10:48:27.506Z,6.40
2022-11-06T10:51:12.253Z,7.70
2022-11-06T10:53:49.445Z,8.67
2022-11-06T10:56:47.883Z,6.87
2022-11-06T10:59:16.294Z,8.73
2022-11-06T11:01:44.559Z,5.50
2022-11-06T11:04:13.989Z,7.70
2022-11-06T11:06:42.220Z,5.80
2022-11-06T11:09:30.751Z,6.73
2022-11-06T11:11:59.461Z,7.63
2022-11-06T11:14:29.395Z,8.13
2022-11-06T11:17:01.677Z,7.90
2022-11-06T11:19:43.983Z,6.80
2022-11-06T11:22:20.860Z,8.67
2022-11-06T11:25:02.820Z,7.83
2022-11-06T11:27:32.884Z,5.73
2022-11-06T11:30:00.921Z,5.17
2022-11-06T11:32:31.310Z,5.47
2022-11-06T11:35:00.903Z,4.43
2022-11-06T11:37:31.002Z,5.00
2022-11-06T11:40:22.022Z,4.20
2022-11-06T11:42:50.011Z,5.20
2022-11-06T11:45:20.109Z,4.50
2022-11-06T11:47:51.221Z,5.40
2022-11-06T11:50:29.011Z,5.10
2022-11-06T11:53:05.596Z,5.00
2022-11-06T11:55:40.929Z,5.10
2022-11-06T11:58:20.388Z,4.83
2022-11-06T12:00:53.246Z,4.27
2022-11-06T12:03:23.066Z,3.33
2022-11-06T12:05:55.036Z,5.50
2022-11-06T12:08:26.296Z,4.10
2022-11-06T12:11:01.863Z,4.63
2022-11-06T12:13:29.852Z,3.70
2022-11-06T12:16:00.428Z,4.43
2022-11-06T12:18:32.447Z,4.03
2022-11-06T12:21:05.365Z,6.43
2022-11-06T12:23:40.480Z,4.97
2022-11-06T12:26:14.461Z,5.43
2022-11-06T12:28:46.312Z,5.20
2022-11-06T12:31:21.573Z,4.50
2022-11-06T12:34:06.855Z,4.20
2022-11-06T12:36:44.737Z,4.63
2022-11-06T12:39:17.407Z,4.73
2022-11-06T12:41:49.389Z,4.40
2022-11-06T12:44:18.258Z,5.40
2022-11-06T12:46:52.210Z,5.07
2022-11-06T12:49:36.529Z,4.33
2022-11-06T12:52:25.338Z,4.83
2022-11-06T12:55:17.935Z,4.50
2022-11-06T12:58:03.930Z,5.83
2022-11-06T13:00:40.357Z,11.53
2022-11-06T13:03:32.191Z,6.77
2022-11-06T13:06:11.917Z,4.33
2022-11-06T13:08:54.849Z,4.37
2022-11-06T13:11:32.872Z,3.63
2022-11-06T13:14:12.392Z,4.43
2022-11-06T13:16:46.964Z,4.47
2022-11-06T13:19:21.901Z,5.90
2022-11-06T13:22:08.942Z,5.03
2022-11-06T13:24:45.772Z,4.03
2022-11-06T13:27:22.217Z,4.90
2022-11-06T13:29:51.071Z,3.17
2022-11-06T13:32:23.608Z,5.07
2022-11-06T13:34:54.975Z,4.30
2022-11-06T13:37:32.358Z,3.90
2022-11-06T13:40:06.666Z,3.67
2022-11-06T13:42:40.873Z,4.63
2022-11-06T13:45:10.659Z,4.90
2022-11-06T13:47:51.062Z,4.60
2022-11-06T13:50:26.837Z,4.70
2022-11-06T13:53:04.727Z,4.80
2022-11-06T13:55:50.478Z,3.60
2022-11-06T13:58:32.204Z,4.90
2022-11-06T14:01:12.643Z,5.10
2022-11-06T14:04:17.439Z,5.40
2022-11-06T14:06:46.586Z,5.37
2022-11-06T14:09:21.790Z,4.90
2022-11-06T14:12:14.863Z,4.70
2022-11-06T14:15:17.381Z,4.40
2022-11-06T14:17:56.586Z,4.50
2022-11-06T14:20:30.764Z,4.37
2022-11-06T14:23:28.587Z,5.57
2022-11-06T14:26:01.623Z,4.13
2022-11-06T14:28:32.461Z,4.40
2022-11-06T14:31:21.508Z,4.80
2022-11-06T14:34:03.042Z,4.67
2022-11-06T14:36:38.029Z,5.27
2022-11-06T14:39:11.961Z,5.23
2022-11-06T14:41:56.144Z,4.37
2022-11-06T14:44:46.634Z,4.97
2022-11-06T14:47:29.523Z,6.53
2022-11-06T14:49:59.884Z,6.40
2022-11-06T14:52:28.815Z,7.00
2022-11-06T14:55:04.798Z,3.87
2022-11-06T14:57:42.884Z,4.70
2022-11-06T15:00:34.058Z,5.23
2022-11-06T15:03:03.064Z,3.93
2022-11-06T15:05:32.155Z,5.00
2022-11-06T15:08:05.327Z,5.30
2022-11-06T15:10:54.978Z,4.10
2022-11-06T15:13:33.479Z,3.93
2022-11-06T15:16:12.271Z,5.20
2022-11-06T15:18:44.072Z,5.33
2022-11-06T15:21:18.904Z,5.53
2022-11-06T15:23:55.800Z,4.80
2022-11-06T15:26:27.707Z,5.43
2022-11-06T15:29:10.401Z,7.43
2022-11-06T15:31:40.798Z,7.10
2022-11-06T15:34:16.930Z,5.73
2022-11-06T15:36:49.596Z,10.57
2022-11-06T15:39:32.535Z,5.67
2022-11-06T15:42:01.072Z,6.23
2022-11-06T15:44:30.028Z,6.17
2022-11-06T15:47:00.297Z,9.33
2022-11-06T15:49:28.309Z,5.57
2022-11-06T15:51:57.958Z,4.63
2022-11-06T15:54:35.999Z,4.47
2022-11-06T15:57:09.173Z,5.10
2022-11-06T15:59:37.192Z,6.37
2022-11-06T16:02:15.002Z,6.10
2022-11-06T16:04:43.750Z,5.60
2022-11-06T16:07:13.024Z,6.07
2022-11-06T16:09:42.434Z,6.93
2022-11-06T16:12:13.119Z,5.93
2022-11-06T16:14:44.206Z,6.00
2022-11-06T16:17:19.466Z,6.50
2022-11-06T16:19:50.025Z,5.53
2022-11-06T16:22:20.738Z,5.87
2022-11-06T16:24:52.099Z,5.40
2022-11-06T16:27:21.889Z,15.20
2022-11-06T16:29:53.427Z,7.30
2022-11-06T16:32:26.338Z,7.23
2022-11-06T16:34:55.316Z,5.47
2022-11-06T16:37:40.715Z,5.57
2022-11-06T16:40:42.258Z,5.53
2022-11-06T16:43:15.591Z,5.73
2022-11-06T16:45:57.880Z,6.40
2022-11-06T16:48:38.135Z,8.10
2022-11-06T16:51:12.505Z,5.50
2022-11-06T16:53:53.534Z,7.90
2022-11-06T16:56:27.743Z,6.23
2022-11-06T16:59:01.172Z,8.00
2022-11-06T17:01:37.106Z,7.13
2022-11-06T17:04:06.985Z,6.47
2022-11-06T17:06:37.911Z,8.13
2022-11-06T17:09:10.184Z,6.33
2022-11-06T17:11:38.836Z,6.83
2022-11-06T17:14:19.484Z,7.23
2022-11-06T17:16:50.636Z,8.80
2022-11-06T17:19:21.529Z,9.17
2022-11-06T17:21:50.831Z,7.30
2022-11-06T17:24:37.061Z,5.13
2022-11-06T17:27:06.379Z,6.70
2022-11-06T17:29:36.310Z,6.83
2022-11-06T17:32:05.515Z,7.53
2022-11-06T17:34:35.089Z,6.33
2022-11-06T17:37:03.314Z,6.10
2022-11-06T17:39:33.285Z,5.93
2022-11-06T17:42:01.435Z,7.30
2022-11-06T17:44:29.635Z,5.83
2022-11-06T17:46:57.885Z,5.40
2022-11-06T17:49:25.912Z,6.97
2022-11-06T17:51:59.611Z,5.00
2022-11-06T17:54:32.084Z,6.17
2022-11-06T17:57:02.737Z,6.17
2022-11-06T17:59:31.199Z,6.33
2022-11-06T18:01:59.908Z,5.60
2022-11-06T18:04:31.316Z,5.13
2022-11-06T18:07:00.866Z,5.37
2022-11-06T18:09:28.971Z,6.60
2022-11-06T18:11:57.516Z,4.53
2022-11-06T18:14:27.750Z,7.30
2022-11-06T18:16:55.860Z,6.40
2022-11-06T18:19:25.361Z,4.90
2022-11-06T18:21:55.451Z,4.77
2022-11-06T18:24:25.562Z,5.67
2022-11-06T18:26:54.067Z,4.73
2022-11-06T18:29:22.235Z,4.60
2022-11-06T18:31:50.505Z,4.40
2022-11-06T18:34:21.199Z,4.73
2022-11-06T18:36:51.118Z,5.97
2022-11-06T18:39:19.816Z,5.30
2022-11-06T18:41:49.322Z,5.07
2022-11-06T18:44:18.163Z,4.50
2022-11-06T18:46:47.070Z,6.00
2022-11-06T18:49:15.599Z,4.73
2022-11-06T18:51:43.809Z,4.03
2022-11-06T18:54:13.527Z,4.80
2022-11-06T18:56:41.862Z,4.67
2022-11-06T18:59:15.398Z,4.60
2022-11-06T19:01:43.702Z,3.80
2022-11-06T19:04:11.901Z,3.37
2022-11-06T19:06:40.959Z,3.20
2022-11-06T19:09:10.273Z,2.83
2022-11-06T19:11:38.701Z,3.37
2022-11-06T19:14:06.814Z,3.60
2022-11-06T19:16:36.493Z,3.17
2022-11-06T19:19:06.579Z,3.80
2022-11-06T19:21:35.496Z,2.67
2022-11-06T19:24:05.646Z,2.53
2022-11-06T19:26:35.936Z,4.17
2022-11-06T19:29:05.051Z,3.47
2022-11-06T19:31:33.938Z,4.10
2022-11-06T19:34:04.617Z,4.17
2022-11-06T19:36:32.844Z,5.07
2022-11-06T19:39:01.280Z,2.90
2022-11-06T19:41:30.138Z,2.97
2022-11-06T19:43:58.199Z,3.47
2022-11-06T19:46:31.129Z,3.47
2022-11-06T19:49:06.298Z,3.30
2022-11-06T19:51:34.989Z,3.07
2022-11-06T19:54:03.199Z,4.13
2022-11-06T19:56:31.422Z,3.17
2022-11-06T19:59:00.045Z,4.13
2022-11-06T20:01:28.375Z,3.83
2022-11-06T20:03:56.691Z,5.13
2022-11-06T20:06:27.372Z,4.20
2022-11-06T20:08:55.581Z,3.10
2022-11-06T20:11:24.377Z,4.77
2022-11-06T20:13:52.513Z,3.90
2022-11-06T20:16:22.286Z,3.40
2022-11-06T20:18:54.161Z,2.83
2022-11-06T20:21:23.081Z,3.20
2022-11-06T20:23:52.593Z,4.03
2022-11-06T20:26:21.097Z,3.70
2022-11-06T20:28:49.878Z,3.00
2022-11-06T20:31:20.139Z,6.10
2022-11-06T20:33:49.190Z,3.40
2022-11-06T20:36:20.544Z,3.83
2022-11-06T20:38:48.638Z,3.47
2022-11-06T20:41:18.417Z,3.03
2022-11-06T20:43:46.624Z,2.30
2022-11-06T20:46:16.057Z,3.10
2022-11-06T20:48:45.441Z,3.53
2022-11-06T20:51:15.960Z,2.70
2022-11-06T20:53:44.276Z,2.50
2022-11-06T20:56:14.627Z,1.80
2022-11-06T20:58:44.724Z,2.10
2022-11-06T21:01:17.289Z,1.70
2022-11-06T21:03:45.731Z,2.30
2022-11-06T21:06:14.098Z,2.87
2022-11-06T21:08:43.214Z,1.60
2022-11-06T21:11:13.503Z,2.23
2022-11-06T21:13:44.323Z,2.97
2022-11-06T21:16:15.918Z,1.90
2022-11-06T21:18:44.255Z,1.83
2022-11-06T21:21:14.063Z,2.17
2022-11-06T21:23:42.704Z,2.20
2022-11-06T21:26:13.157Z,1.97
2022-11-06T21:28:44.153Z,2.50
2022-11-06T21:31:14.347Z,1.83
2022-11-06T21:33:42.841Z,1.87
2022-11-06T21:36:13.569Z,2.67
2022-11-06T21:38:42.462Z,1.87
2022-11-06T21:41:13.144Z,2.80
2022-11-06T21:43:42.907Z,1.67
2022-11-06T21:46:12.542Z,2.53
2022-11-06T21:48:46.732Z,2.77
2022-11-06T21:51:17.258Z,1.53
2022-11-06T21:54:02.660Z,2.07
2022-11-06T21:56:30.835Z,1.97
2022-11-06T21:59:02.881Z,1.27
2022-11-06T22:01:31.997Z,1.90
2022-11-06T22:04:00.959Z,1.53
2022-11-06T22:06:30.628Z,2.30
2022-11-06T22:09:00.874Z,1.60
2022-11-06T22:11:30.752Z,3.07
2022-11-06T22:14:02.896Z,2.30
2022-11-06T22:16:32.770Z,1.33
2022-11-06T22:19:00.837Z,1.93
2022-11-06T22:21:30.351Z,2.07
2022-11-06T22:23:58.811Z,1.80
2022-11-06T22:26:29.033Z,2.23
2022-11-06T22:28:58.515Z,2.00
2022-11-06T22:31:29.039Z,2.00
2022-11-06T22:33:58.201Z,1.70
2022-11-06T22:36:26.934Z,2.80
2022-11-06T22:38:55.027Z,4.67
2022-11-06T22:41:25.440Z,1.93
2022-11-06T22:43:53.847Z,2.40
2022-11-06T22:46:24.421Z,2.10
2022-11-06T22:48:54.273Z,1.70
2022-11-06T22:51:24.060Z,2.10
2022-11-06T22:53:52.731Z,3.00
2022-11-06T22:56:22.454Z,1.97
2022-11-06T22:58:54.788Z,2.03
2022-11-06T23:01:23.617Z,1.63
2022-11-06T23:03:56.608Z,3.43
2022-11-06T23:06:25.374Z,2.03
2022-11-06T23:08:53.674Z,1.30
2022-11-06T23:11:23.170Z,1.53
2022-11-06T23:13:51.193Z,1.80
2022-11-06T23:16:42.483Z,1.60
2022-11-06T23:19:13.702Z,1.77
2022-11-06T23:21:42.671Z,2.40
2022-11-06T23:24:11.468Z,2.27
2022-11-06T23:26:39.612Z,1.43
2022-11-06T23:29:08.168Z,2.40
2022-11-06T23:31:36.129Z,2.10
2022-11-06T23:34:04.108Z,1.80
2022-11-06T23:36:35.229Z,1.83
2022-11-06T23:39:03.212Z,6.10
2022-11-06T23:41:46.607Z,1.60
2022-11-06T23:44:29.747Z,4.17
2022-11-06T23:46:58.919Z,2.53
2022-11-06T23:49:27.138Z,1.50
2022-11-06T23:51:56.585Z,1.37
2022-11-06T23:54:25.236Z,1.83
2022-11-06T23:56:53.303Z,2.97
2022-11-06T23:59:21.469Z,3.43
